Time;durP1;ratioP1;P1;durP2;ratioP2;P2;SDS_P1;SDS_P2;PMS_P1;PMS_P2;Temp;Humidity;BMP_temperature;BMP_pressure;BME280_temperature;BME280_humidity;BME280_pressure;Samples;Min_cycle;Max_cycle;Signal;HPM_P1;HPM_P2
2022/04/23 00:01:19;;;;;;;5.57;4.30;;;8.90;99.90;;;;;;5112275;28;20925;-44
2022/04/23 00:03:46;;;;;;;5.53;4.00;;;9.20;99.90;;;;;;5111602;28;21026;-47
2022/04/23 00:06:13;;;;;;;3.97;3.63;;;9.50;99.90;;;;;;5112509;28;20539;-44
2022/04/23 00:08:40;;;;;;;5.03;4.53;;;9.60;99.90;;;;;;5112391;28;20515;-44
2022/04/23 00:11:07;;;;;;;4.33;3.93;;;9.80;99.90;;;;;;5112342;28;20529;-44
2022/04/23 00:13:35;;;;;;;4.83;4.43;;;9.90;99.90;;;;;;5111919;28;20973;-43
2022/04/23 00:16:02;;;;;;;4.03;3.63;;;10.00;99.90;;;;;;5111994;28;20462;-44
2022/04/23 00:18:29;;;;;;;3.57;3.27;;;9.70;99.90;;;;;;5112237;28;20459;-44
2022/04/23 00:20:57;;;;;;;5.67;4.07;;;9.70;99.90;;;;;;5112183;28;20538;-44
2022/04/23 00:23:25;;;;;;;6.27;3.53;;;9.70;99.90;;;;;;5112075;28;20449;-44
2022/04/23 00:25:54;;;;;;;6.30;4.03;;;9.70;99.90;;;;;;5112187;28;20473;-44
2022/04/23 00:28:21;;;;;;;4.70;3.60;;;9.70;99.90;;;;;;5112472;28;20471;-45
2022/04/23 00:30:52;;;;;;;4.23;3.93;;;9.70;99.90;;;;;;5112058;28;20502;-45
2022/04/23 00:33:19;;;;;;;4.70;3.67;;;9.70;99.90;;;;;;5111815;28;20496;-44
2022/04/23 00:35:48;;;;;;;3.90;3.50;;;9.70;99.90;;;;;;5111980;28;20460;-46
2022/04/23 00:38:16;;;;;;;3.60;3.30;;;9.50;99.90;;;;;;5111847;28;20446;-44
2022/04/23 00:40:44;;;;;;;3.80;3.30;;;9.00;99.90;;;;;;5111710;28;20953;-44
2022/04/23 00:43:27;;;;;;;4.40;4.00;;;8.80;99.90;;;;;;5111659;28;20483;-45
2022/04/23 00:45:56;;;;;;;4.20;3.80;;;8.60;99.90;;;;;;5111524;28;20466;-46
2022/04/23 00:48:26;;;;;;;4.27;3.67;;;8.20;99.90;;;;;;5111854;28;20532;-44
2022/04/23 00:50:54;;;;;;;3.43;3.13;;;8.20;99.90;;;;;;5111679;28;20449;-49
2022/04/23 00:53:21;;;;;;;4.23;3.83;;;8.10;99.90;;;;;;5111495;28;20441;-45
2022/04/23 00:55:48;;;;;;;3.33;3.03;;;8.00;99.90;;;;;;5111576;28;20493;-44
2022/04/23 00:58:17;;;;;;;3.77;3.17;;;8.10;99.90;;;;;;5111296;28;20438;-47
2022/04/23 01:00:44;;;;;;;5.20;3.40;;;8.30;99.90;;;;;;5111577;28;20453;-48
2022/04/23 01:03:13;;;;;;;4.47;3.47;;;8.50;99.90;;;;;;5111183;28;20438;-43
2022/04/23 01:05:44;;;;;;;3.00;2.70;;;8.70;99.90;;;;;;5111465;28;20458;-43
2022/04/23 01:08:14;;;;;;;4.33;3.17;;;8.60;99.90;;;;;;5111726;28;20829;-43
2022/04/23 01:10:43;;;;;;;3.60;3.30;;;8.70;99.90;;;;;;5111352;28;20435;-44
2022/04/23 01:13:10;;;;;;;4.60;3.20;;;8.80;99.90;;;;;;5111275;28;20452;-44
2022/04/23 01:15:37;;;;;;;3.33;3.03;;;8.90;99.90;;;;;;5111545;28;20473;-44
2022/04/23 01:18:05;;;;;;;3.53;3.20;;;8.90;99.90;;;;;;5115139;28;21006;-44
2022/04/23 01:20:34;;;;;;;4.50;3.50;;;9.00;99.90;;;;;;5115965;28;20446;-44
2022/04/23 01:23:01;;;;;;;3.27;3.03;;;9.10;99.90;;;;;;5115292;28;20963;-46
2022/04/23 01:25:32;;;;;;;4.77;3.50;;;9.00;99.90;;;;;;5115373;28;20498;-43
2022/04/23 01:28:01;;;;;;;4.20;3.90;;;8.80;99.90;;;;;;5115366;28;20527;-44
2022/04/23 01:30:28;;;;;;;4.90;4.10;;;8.40;99.90;;;;;;5115274;28;20474;-44
2022/04/23 01:32:55;;;;;;;6.27;4.77;;;7.60;99.90;;;;;;5115399;28;20435;-44
2022/04/23 01:35:22;;;;;;;5.10;4.60;;;7.00;99.90;;;;;;5115227;28;20950;-44
2022/04/23 01:37:51;;;;;;;6.40;5.20;;;6.90;99.90;;;;;;5115138;28;20788;-44
2022/04/23 01:40:19;;;;;;;5.13;4.50;;;7.00;99.90;;;;;;5115303;28;20442;-45
2022/04/23 01:42:46;;;;;;;4.43;4.03;;;7.20;99.90;;;;;;5114988;28;20888;-44
2022/04/23 01:45:13;;;;;;;4.80;4.40;;;7.00;99.90;;;;;;5115146;28;20481;-44
2022/04/23 01:47:40;;;;;;;4.20;3.80;;;6.90;99.90;;;;;;5114841;28;21041;-48
2022/04/23 01:50:08;;;;;;;4.93;4.43;;;7.00;99.90;;;;;;5115112;28;20481;-44
2022/04/23 01:52:35;;;;;;;5.53;4.77;;;7.20;99.90;;;;;;5114784;28;20443;-44
2022/04/23 01:55:04;;;;;;;4.77;4.27;;;7.10;99.90;;;;;;5114953;28;20434;-43
2022/04/23 01:57:31;;;;;;;6.97;4.03;;;7.00;99.90;;;;;;5114583;28;20507;-44
2022/04/23 01:59:58;;;;;;;4.30;3.90;;;7.00;99.90;;;;;;5114634;28;20500;-43
2022/04/23 02:02:25;;;;;;;3.97;3.53;;;7.20;99.90;;;;;;5114818;28;20792;-44
2022/04/23 02:04:52;;;;;;;4.70;4.30;;;7.40;99.90;;;;;;5114756;28;20470;-44
2022/04/23 02:07:19;;;;;;;3.63;3.33;;;7.60;99.90;;;;;;5114460;28;20968;-44
2022/04/23 02:09:46;;;;;;;6.30;4.60;;;7.70;99.90;;;;;;5114525;28;20497;-48
2022/04/23 02:12:14;;;;;;;6.20;5.60;;;7.70;99.90;;;;;;5114763;28;20520;-44
2022/04/23 02:14:41;;;;;;;5.97;5.40;;;7.40;99.90;;;;;;5114605;28;20489;-44
2022/04/23 02:17:09;;;;;;;5.00;4.50;;;7.40;99.90;;;;;;5114640;28;20499;-44
2022/04/23 02:19:36;;;;;;;5.00;4.50;;;7.40;99.90;;;;;;5114509;28;20861;-44
2022/04/23 02:22:03;;;;;;;4.30;3.90;;;7.30;99.90;;;;;;5114192;28;20874;-44
2022/04/23 02:24:31;;;;;;;6.30;5.40;;;7.40;99.90;;;;;;5114300;28;20445;-43
2022/04/23 02:26:58;;;;;;;5.30;4.77;;;7.60;99.90;;;;;;5113459;28;20478;-45
2022/04/23 02:29:26;;;;;;;5.07;4.17;;;7.70;99.90;;;;;;5114448;28;20447;-43
2022/04/23 02:31:53;;;;;;;5.30;4.80;;;7.90;99.90;;;;;;5114205;28;20845;-43
2022/04/23 02:34:21;;;;;;;4.67;4.27;;;7.80;99.90;;;;;;5113864;28;20937;-44
2022/04/23 02:36:48;;;;;;;5.20;4.80;;;7.50;99.90;;;;;;5114161;28;20556;-45
2022/04/23 02:39:15;;;;;;;5.20;4.70;;;7.60;99.90;;;;;;5114019;28;20807;-44
2022/04/23 02:41:42;;;;;;;5.27;4.77;;;7.70;99.90;;;;;;5114026;28;20427;-48
2022/04/23 02:44:09;;;;;;;5.00;4.17;;;7.80;99.90;;;;;;5113766;28;20473;-44
2022/04/23 02:46:37;;;;;;;6.07;4.97;;;7.80;99.90;;;;;;5113796;28;20822;-43
2022/04/23 02:49:04;;;;;;;4.50;4.10;;;7.70;99.90;;;;;;5113925;28;20952;-41
2022/04/23 02:51:31;;;;;;;4.70;4.30;;;7.70;99.90;;;;;;5113996;28;20438;-44
2022/04/23 02:53:58;;;;;;;4.80;3.80;;;7.70;99.90;;;;;;5113658;28;20460;-44
2022/04/23 02:56:26;;;;;;;5.83;3.53;;;7.60;99.90;;;;;;5113759;28;20459;-43
2022/04/23 02:58:53;;;;;;;3.60;3.30;;;7.50;99.90;;;;;;5113462;28;20445;-45
2022/04/23 03:01:22;;;;;;;5.10;4.60;;;7.40;99.90;;;;;;5113174;28;20940;-44
2022/04/23 03:03:54;;;;;;;5.00;4.53;;;7.30;99.90;;;;;;5113568;28;20434;-43
2022/04/23 03:06:22;;;;;;;5.90;5.30;;;6.60;99.90;;;;;;5113549;28;21059;-44
2022/04/23 03:08:49;;;;;;;5.03;4.20;;;6.50;99.90;;;;;;5113519;28;20561;-43
2022/04/23 03:11:16;;;;;;;4.07;3.67;;;6.70;99.90;;;;;;5113384;28;20925;-44
2022/04/23 03:13:43;;;;;;;4.30;3.53;;;6.70;99.90;;;;;;5113339;28;20477;-44
2022/04/23 03:16:10;;;;;;;3.87;3.50;;;6.90;99.90;;;;;;5113417;28;20473;-48
2022/04/23 03:18:37;;;;;;;3.43;3.13;;;7.10;99.90;;;;;;5113535;28;20479;-43
2022/04/23 03:21:05;;;;;;;5.03;3.50;;;7.20;99.90;;;;;;5113510;28;20492;-42
2022/04/23 03:23:32;;;;;;;4.80;3.70;;;7.40;99.90;;;;;;5113289;28;20478;-44
2022/04/23 03:25:59;;;;;;;3.93;3.27;;;7.40;99.90;;;;;;5114561;28;20502;-44
2022/04/23 03:28:26;;;;;;;6.73;3.80;;;7.50;99.90;;;;;;5112953;28;20478;-43
2022/04/23 03:30:53;;;;;;;3.57;3.27;;;7.50;99.90;;;;;;5113368;28;20515;-45
2022/04/23 03:33:20;;;;;;;3.30;3.00;;;7.40;99.90;;;;;;5113089;28;20508;-44
2022/04/23 03:35:47;;;;;;;4.97;3.47;;;7.20;99.90;;;;;;5112979;28;20512;-44
2022/04/23 03:38:16;;;;;;;3.80;3.40;;;6.50;99.90;;;;;;5112879;28;20498;-46
2022/04/23 03:40:44;;;;;;;4.37;3.50;;;6.20;99.90;;;;;;5112112;28;20446;-48
2022/04/23 03:43:10;;;;;;;5.20;3.73;;;6.00;99.90;;;;;;5112569;28;20530;-43
2022/04/23 03:45:37;;;;;;;3.53;2.90;;;6.00;99.90;;;;;;5112849;28;20471;-43
2022/04/23 03:48:05;;;;;;;3.73;3.43;;;6.10;99.90;;;;;;5112830;28;20984;-45
2022/04/23 03:50:33;;;;;;;4.33;3.70;;;6.00;99.90;;;;;;5112728;28;20529;-43
2022/04/23 03:53:00;;;;;;;4.20;3.80;;;5.90;99.90;;;;;;5112611;28;21084;-44
2022/04/23 03:55:30;;;;;;;4.43;3.23;;;6.10;99.90;;;;;;5112438;28;20546;-44
2022/04/23 03:57:57;;;;;;;4.60;4.20;;;6.50;99.90;;;;;;5112791;28;20518;-46
2022/04/23 04:00:24;;;;;;;4.50;4.10;;;6.70;99.90;;;;;;5112515;28;20526;-43
2022/04/23 04:02:51;;;;;;;4.23;3.37;;;6.80;99.90;;;;;;5111953;28;20849;-44
2022/04/23 04:05:19;;;;;;;4.10;3.70;;;7.00;99.90;;;;;;5112329;28;20467;-44
2022/04/23 04:07:47;;;;;;;4.60;2.93;;;7.10;99.90;;;;;;5112356;28;20478;-44
2022/04/23 04:10:17;;;;;;;4.00;3.40;;;7.20;99.90;;;;;;5112412;28;20449;-44
2022/04/23 04:12:46;;;;;;;3.40;3.10;;;7.10;99.90;;;;;;5112229;28;20438;-45
2022/04/23 04:15:15;;;;;;;4.43;3.40;;;7.20;99.90;;;;;;5112427;28;20438;-43
2022/04/23 04:17:43;;;;;;;4.07;3.70;;;7.10;99.90;;;;;;5112363;28;20830;-47
2022/04/23 04:20:12;;;;;;;4.20;3.80;;;7.20;99.90;;;;;;5112046;28;20477;-45
2022/04/23 04:22:39;;;;;;;4.70;4.27;;;7.10;99.90;;;;;;5111712;28;20478;-44
2022/04/23 04:25:07;;;;;;;5.20;4.80;;;7.20;99.90;;;;;;5111993;28;20526;-42
2022/04/23 04:27:34;;;;;;;4.20;3.80;;;7.30;99.90;;;;;;5111678;28;20514;-43
2022/04/23 04:30:04;;;;;;;4.27;3.70;;;7.40;99.90;;;;;;5112149;28;20503;-44
2022/04/23 04:32:31;;;;;;;4.03;3.33;;;7.50;99.90;;;;;;5111999;28;20473;-46
2022/04/23 04:34:58;;;;;;;3.13;2.83;;;7.50;99.90;;;;;;5112267;28;20511;-46
2022/04/23 04:37:27;;;;;;;3.80;3.43;;;7.10;99.90;;;;;;5111506;28;20486;-48
2022/04/23 04:39:54;;;;;;;6.50;4.77;;;7.10;99.90;;;;;;5112016;28;20450;-43
2022/04/23 04:42:21;;;;;;;4.57;4.17;;;7.20;99.90;;;;;;5111653;28;20517;-47
2022/04/23 04:44:49;;;;;;;4.20;3.80;;;7.00;99.90;;;;;;5111906;28;20466;-44
2022/04/23 04:47:18;;;;;;;5.67;5.07;;;5.70;99.90;;;;;;5111777;28;20469;-44
2022/04/23 04:49:45;;;;;;;5.40;4.77;;;5.30;99.90;;;;;;5111376;28;20923;-44
2022/04/23 04:52:12;;;;;;;5.13;4.63;;;5.60;99.90;;;;;;5111853;28;20873;-47
2022/04/23 04:54:39;;;;;;;3.90;3.60;;;5.70;99.90;;;;;;5111930;28;20484;-43
2022/04/23 04:57:06;;;;;;;7.77;5.10;;;5.90;99.90;;;;;;5111581;28;20976;-43
2022/04/23 04:59:33;;;;;;;5.10;4.47;;;5.70;99.90;;;;;;5111407;28;20474;-44
2022/04/23 05:02:00;;;;;;;5.07;4.67;;;5.90;99.90;;;;;;5111608;28;20497;-43
2022/04/23 05:04:29;;;;;;;4.43;4.03;;;6.30;99.90;;;;;;5111360;28;20952;-44
2022/04/23 05:06:56;;;;;;;4.47;4.03;;;6.50;99.90;;;;;;5111592;28;21053;-44
2022/04/23 05:09:23;;;;;;;4.43;4.03;;;6.80;99.90;;;;;;5111308;28;20470;-48
2022/04/23 05:11:50;;;;;;;4.43;3.57;;;7.00;99.90;;;;;;5111470;28;20504;-44
2022/04/23 05:14:18;;;;;;;3.63;3.33;;;7.10;99.90;;;;;;5111438;28;20789;-44
2022/04/23 05:16:45;;;;;;;3.60;3.27;;;7.20;99.90;;;;;;5111818;28;20876;-44
2022/04/23 05:19:12;;;;;;;4.07;3.07;;;7.30;99.90;;;;;;5111246;28;21018;-47
2022/04/23 05:21:40;;;;;;;3.43;3.13;;;7.30;99.90;;;;;;5111643;28;20479;-44
2022/04/23 05:24:08;;;;;;;4.03;3.63;;;7.30;99.90;;;;;;5111199;28;20442;-44
2022/04/23 05:26:35;;;;;;;3.63;3.33;;;7.40;99.90;;;;;;5111177;28;20523;-46
2022/04/23 05:29:02;;;;;;;5.50;5.03;;;7.40;99.90;;;;;;5111324;28;20474;-44
2022/04/23 05:31:31;;;;;;;4.40;4.00;;;7.40;99.90;;;;;;5111728;28;20497;-44
2022/04/23 05:33:58;;;;;;;4.53;4.13;;;7.60;99.90;;;;;;5111222;28;20453;-44
2022/04/23 05:36:25;;;;;;;5.40;3.70;;;7.50;99.90;;;;;;5111298;28;20501;-44
2022/04/23 05:38:54;;;;;;;6.53;5.10;;;7.60;99.90;;;;;;5111732;28;20513;-43
2022/04/23 05:41:21;;;;;;;4.40;3.70;;;7.50;99.90;;;;;;5111535;28;20468;-44
2022/04/23 05:43:48;;;;;;;3.87;3.57;;;7.50;99.90;;;;;;5110891;28;20906;-44
2022/04/23 05:46:16;;;;;;;5.00;4.60;;;7.00;99.90;;;;;;5111198;28;20545;-44
2022/04/23 05:48:43;;;;;;;4.20;3.80;;;7.00;99.90;;;;;;5111453;28;20908;-43
2022/04/23 05:51:10;;;;;;;5.80;5.17;;;6.60;99.90;;;;;;5111162;28;20519;-45
2022/04/23 05:53:37;;;;;;;6.90;4.60;;;7.10;99.90;;;;;;5110990;28;20828;-43
2022/04/23 05:56:06;;;;;;;11.37;7.93;;;7.40;99.90;;;;;;5111154;28;20497;-47
2022/04/23 05:58:35;;;;;;;10.10;6.60;;;7.70;99.90;;;;;;5110903;28;21001;-44
2022/04/23 06:01:02;;;;;;;7.73;5.87;;;7.90;99.90;;;;;;5111199;28;20815;-44
2022/04/23 06:03:29;;;;;;;6.70;6.00;;;8.00;99.90;;;;;;5113058;28;20442;-46
2022/04/23 06:05:56;;;;;;;10.37;9.37;;;8.10;99.90;;;;;;5114603;28;20486;-44
2022/04/23 06:08:22;;;;;;;6.47;5.87;;;7.90;99.90;;;;;;5114739;28;20827;-43
2022/04/23 06:10:49;;;;;;;7.03;6.43;;;8.00;99.90;;;;;;5114825;28;20443;-44
2022/04/23 06:13:18;;;;;;;9.30;7.77;;;8.00;99.90;;;;;;5114527;28;20482;-44
2022/04/23 06:15:45;;;;;;;6.93;6.33;;;7.60;99.90;;;;;;5114276;28;20490;-44
2022/04/23 06:18:11;;;;;;;7.00;6.40;;;7.30;99.90;;;;;;5114160;28;20921;-45
2022/04/23 06:20:38;;;;;;;7.60;6.90;;;7.30;99.90;;;;;;5114516;28;20474;-44
2022/04/23 06:23:06;;;;;;;8.40;7.27;;;7.20;99.90;;;;;;5114211;28;20807;-44
2022/04/23 06:25:33;;;;;;;8.07;7.27;;;7.30;99.90;;;;;;5114199;28;20468;-44
2022/04/23 06:27:59;;;;;;;8.70;7.00;;;7.50;99.90;;;;;;5114377;28;20462;-44
2022/04/23 06:30:28;;;;;;;7.07;6.37;;;7.30;99.90;;;;;;5114184;28;20443;-44
2022/04/23 06:32:55;;;;;;;5.00;4.60;;;7.50;99.90;;;;;;5114389;28;20452;-44
2022/04/23 06:35:22;;;;;;;4.60;4.20;;;7.40;99.90;;;;;;5114044;28;20948;-44
2022/04/23 06:37:49;;;;;;;10.60;9.57;;;7.30;99.90;;;;;;5114260;28;20525;-44
2022/04/23 06:40:16;;;;;;;22.80;20.50;;;7.60;99.90;;;;;;5113969;28;20952;-44
2022/04/23 06:42:44;;;;;;;7.17;6.50;;;7.90;99.90;;;;;;5113820;28;20537;-44
2022/04/23 06:45:11;;;;;;;10.77;9.87;;;8.00;99.90;;;;;;5113708;28;20450;-43
2022/04/23 06:47:40;;;;;;;9.00;8.20;;;7.90;99.90;;;;;;5114103;28;20516;-44
2022/04/23 06:50:08;;;;;;;8.13;7.20;;;8.00;99.90;;;;;;5113940;28;20477;-44
2022/04/23 06:52:35;;;;;;;5.90;5.00;;;7.70;99.90;;;;;;5113730;28;20692;-44
2022/04/23 06:55:03;;;;;;;5.73;5.23;;;7.60;99.90;;;;;;5113924;28;20442;-44
2022/04/23 06:57:30;;;;;;;5.67;5.10;;;7.90;99.90;;;;;;5113435;28;20538;-48
2022/04/23 07:00:00;;;;;;;6.60;6.00;;;8.20;99.90;;;;;;5113796;28;20820;-44
2022/04/23 07:02:27;;;;;;;9.67;7.33;;;8.50;99.90;;;;;;5112607;28;20458;-44
2022/04/23 07:04:55;;;;;;;6.90;6.30;;;8.80;99.90;;;;;;5113638;28;20529;-46
2022/04/23 07:07:22;;;;;;;6.30;5.73;;;9.20;99.90;;;;;;5113548;28;20462;-43
2022/04/23 07:09:49;;;;;;;6.23;5.73;;;9.40;99.90;;;;;;5113211;28;20467;-44
2022/04/23 07:12:17;;;;;;;6.63;6.03;;;9.50;99.90;;;;;;5113058;28;20447;-43
2022/04/23 07:14:45;;;;;;;6.43;5.83;;;9.60;99.90;;;;;;5113172;28;20445;-44
2022/04/23 07:17:12;;;;;;;8.77;6.73;;;9.60;99.90;;;;;;5113427;28;20532;-44
2022/04/23 07:19:40;;;;;;;6.77;6.17;;;9.50;99.90;;;;;;5113348;28;20536;-44
2022/04/23 07:22:09;;;;;;;10.13;5.97;;;9.80;99.90;;;;;;5113136;28;20500;-42
2022/04/23 07:24:37;;;;;;;6.30;5.70;;;10.10;99.90;;;;;;5112631;28;20791;-45
2022/04/23 07:27:04;;;;;;;7.57;6.87;;;10.30;99.90;;;;;;5112896;28;20474;-47
2022/04/23 07:29:31;;;;;;;5.87;5.27;;;10.50;99.90;;;;;;5112837;28;20566;-44
2022/04/23 07:31:58;;;;;;;6.83;6.23;;;10.70;99.90;;;;;;5112973;28;20438;-46
2022/04/23 07:37:30;;;;;;;6.37;5.77;;;10.60;99.90;;;;;;5112901;28;20491;-44
2022/04/23 07:39:58;;;;;;;6.67;6.07;;;11.00;99.90;;;;;;5113084;28;20438;-44
2022/04/23 07:42:25;;;;;;;6.35;5.85;;;11.30;99.90;;;;;;5112089;28;20430;-48
2022/04/23 07:44:52;;;;;;;5.30;4.80;;;11.70;99.90;;;;;;5112681;28;20274;-44
2022/04/23 07:47:19;;;;;;;6.57;6.07;;;11.90;99.90;;;;;;5112696;28;20494;-44
2022/04/23 07:49:46;;;;;;;6.13;5.53;;;12.20;99.90;;;;;;5112580;28;20482;-45
2022/04/23 07:52:15;;;;;;;5.87;4.83;;;12.20;99.90;;;;;;5112687;28;20439;-47
2022/04/23 07:54:43;;;;;;;4.60;4.20;;;12.30;99.90;;;;;;5112545;28;20443;-44
2022/04/23 07:57:11;;;;;;;4.70;4.30;;;12.50;99.90;;;;;;5112490;28;20822;-44
2022/04/23 07:59:40;;;;;;;5.40;4.90;;;12.70;99.90;;;;;;5112309;28;20445;-45
2022/04/23 08:02:07;;;;;;;4.47;3.90;;;13.10;99.90;;;;;;5112324;28;20449;-42
2022/04/23 08:04:34;;;;;;;18.20;5.00;;;13.40;99.90;;;;;;5112378;28;20439;-44
2022/04/23 08:07:01;;;;;;;44.07;9.33;;;13.30;99.90;;;;;;5112346;28;20493;-45
2022/04/23 08:09:29;;;;;;;5.00;4.50;;;13.40;99.90;;;;;;5112139;28;20462;-44
2022/04/23 08:11:56;;;;;;;4.57;4.13;;;13.40;99.90;;;;;;5112071;28;20527;-43
2022/04/23 08:14:23;;;;;;;3.50;3.20;;;13.70;99.90;;;;;;5112206;28;20474;-45
2022/04/23 08:16:50;;;;;;;10.07;5.27;;;13.80;99.90;;;;;;5112202;28;20483;-44
2022/04/23 08:19:18;;;;;;;15.70;4.30;;;14.10;99.90;;;;;;5112152;28;20445;-45
2022/04/23 08:21:45;;;;;;;28.70;6.83;;;14.30;99.90;;;;;;5111930;28;20957;-49
2022/04/23 08:24:12;;;;;;;27.57;4.83;;;14.20;99.90;;;;;;5111916;28;20447;-44
2022/04/23 08:26:41;;;;;;;2.97;2.77;;;14.30;99.90;;;;;;5111471;28;20471;-44
2022/04/23 08:31:52;;;;;;;8.10;3.43;;;14.40;99.90;;;;;;5111985;28;20414;-43
2022/04/23 08:34:19;;;;;;;19.40;4.03;;;14.10;99.90;;;;;;5111575;28;20439;-44
2022/04/23 08:36:49;;;;;;;26.93;5.70;;;14.20;99.90;;;;;;5111772;28;20515;-46
2022/04/23 08:39:16;;;;;;;3.90;3.60;;;14.30;99.90;;;;;;5112077;28;20522;-49
2022/04/23 08:41:46;;;;;;;12.60;4.90;;;14.20;99.90;;;;;;5111712;28;20474;-44
2022/04/23 08:44:13;;;;;;;6.07;4.60;;;14.00;99.90;;;;;;5111099;28;20504;-44
2022/04/23 08:46:41;;;;;;;4.37;4.07;;;14.00;99.90;;;;;;5111113;28;20466;-44
2022/04/23 08:49:11;;;;;;;4.70;4.20;;;14.10;99.90;;;;;;5111124;28;20501;-44
2022/04/23 08:51:39;;;;;;;6.30;5.70;;;14.30;99.90;;;;;;5111383;28;20458;-40
2022/04/23 08:54:09;;;;;;;7.33;6.63;;;14.40;99.90;;;;;;5111170;28;20473;-44
2022/04/23 08:56:37;;;;;;;7.40;6.70;;;14.30;99.90;;;;;;5111081;28;20976;-45
2022/04/23 08:59:07;;;;;;;9.83;7.40;;;14.10;99.90;;;;;;5110495;28;20875;-45
2022/04/23 09:01:35;;;;;;;7.93;6.83;;;14.20;99.90;;;;;;5111491;28;20454;-46
2022/04/23 09:04:03;;;;;;;6.97;6.40;;;14.20;99.90;;;;;;5110812;28;20525;-45
2022/04/23 09:06:35;;;;;;;7.83;6.23;;;14.20;99.90;;;;;;5109874;28;20463;-45
2022/04/23 09:09:25;;;;;;;5.63;5.13;;;14.30;99.90;;;;;;5111031;28;20487;-44
2022/04/23 09:11:53;;;;;;;5.90;4.87;;;14.50;99.90;;;;;;5113143;28;20541;-43
2022/04/23 09:14:27;;;;;;;7.53;5.40;;;14.50;99.90;;;;;;5127632;28;20524;-45
2022/04/23 09:25:17;;;;;;;5.57;5.07;;;15.50;99.90;;;;;;5110826;28;20429;-45
2022/04/23 09:27:45;;;;;;;5.30;4.83;;;15.80;99.90;;;;;;5112887;28;20535;-44
2022/04/23 09:30:14;;;;;;;5.40;4.93;;;15.80;99.90;;;;;;5123006;28;20469;-47
2022/04/23 09:33:00;;;;;;;5.00;4.60;;;15.70;99.90;;;;;;5130898;28;20483;-45
2022/04/23 09:35:27;;;;;;;5.97;5.43;;;15.70;99.90;;;;;;5114862;28;20446;-44
2022/04/23 09:38:12;;;;;;;6.20;5.60;;;15.90;99.90;;;;;;5112607;27;20525;-47
2022/04/23 09:40:39;;;;;;;5.87;4.97;;;16.20;99.90;;;;;;5129222;27;20480;-44
2022/04/23 09:43:08;;;;;;;8.10;4.97;;;16.40;99.90;;;;;;5135129;27;20476;-44
2022/04/23 09:45:41;;;;;;;6.07;5.57;;;16.50;99.90;;;;;;5125454;27;20943;-44
2022/04/23 09:48:17;;;;;;;5.70;5.10;;;16.60;99.90;;;;;;5115729;27;20754;-44
2022/04/23 09:50:45;;;;;;;10.10;6.67;;;16.60;99.90;;;;;;5114824;28;20496;-44
2022/04/23 09:53:13;;;;;;;20.60;6.80;;;16.60;99.90;;;;;;5113557;28;20438;-44
2022/04/23 09:55:40;;;;;;;52.93;12.73;;;16.40;99.90;;;;;;5114928;28;20497;-44
2022/04/23 09:58:08;;;;;;;14.87;6.83;;;16.20;99.90;;;;;;5114797;27;20435;-49
2022/04/23 10:00:38;;;;;;;47.77;12.97;;;16.10;99.90;;;;;;5114606;28;20433;-44
2022/04/23 10:03:07;;;;;;;49.73;14.40;;;16.10;99.90;;;;;;5114204;28;20487;-47
2022/04/23 10:05:38;;;;;;;25.70;10.10;;;16.10;99.90;;;;;;5115973;27;20435;-45
2022/04/23 10:08:11;;;;;;;16.23;8.63;;;16.10;99.90;;;;;;5123222;27;20812;-44
2022/04/23 10:10:43;;;;;;;22.60;8.57;;;16.30;99.90;;;;;;5131505;27;20491;-48
2022/04/23 10:13:12;;;;;;;36.03;13.73;;;16.50;99.90;;;;;;5132245;27;20445;-49
2022/04/23 10:15:46;;;;;;;14.00;8.93;;;16.60;99.90;;;;;;5133738;27;20467;-45
2022/04/23 10:18:13;;;;;;;27.17;11.23;;;16.80;99.90;;;;;;5131395;27;20450;-46
2022/04/23 10:20:52;;;;;;;52.87;15.40;;;16.90;99.90;;;;;;5123812;27;20434;-46
2022/04/23 10:23:47;;;;;;;14.93;7.93;;;17.00;99.90;;;;;;5130984;27;20448;-45
2022/04/23 10:26:37;;;;;;;11.10;7.90;;;17.00;99.90;;;;;;5105581;27;20533;-46
2022/04/23 10:29:09;;;;;;;11.47;8.70;;;17.10;99.90;;;;;;5135053;27;20442;-44
2022/04/23 10:31:38;;;;;;;41.57;11.47;;;17.20;99.90;;;;;;5131088;27;20450;-45
2022/04/23 10:34:05;;;;;;;10.97;6.80;;;17.20;99.90;;;;;;5126171;27;20463;-44
2022/04/23 10:36:32;;;;;;;6.60;6.00;;;17.40;99.90;;;;;;5129678;27;20458;-48
2022/04/23 10:39:22;;;;;;;20.50;8.70;;;17.80;99.90;;;;;;5115508;27;20522;-46
2022/04/23 10:41:50;;;;;;;13.47;7.10;;;18.00;99.90;;;;;;5110858;27;20887;-46
2022/04/23 10:44:22;;;;;;;6.57;5.97;;;18.10;99.90;;;;;;5112651;27;20920;-46
2022/04/23 10:46:50;;;;;;;26.10;8.27;;;18.00;99.90;;;;;;5110989;28;20497;-48
2022/04/23 10:49:23;;;;;;;5.40;4.90;;;18.00;99.90;;;;;;5120217;27;20441;-46
2022/04/23 10:51:54;;;;;;;6.40;5.23;;;18.10;99.90;;;;;;5118376;27;20447;-46
2022/04/23 10:54:42;;;;;;;6.10;5.50;;;18.00;99.90;;;;;;5134057;27;20445;-46
2022/04/23 10:57:10;;;;;;;5.77;5.20;;;18.00;99.90;;;;;;5118986;27;20502;-47
2022/04/23 10:59:39;;;;;;;5.10;4.60;;;18.00;99.90;;;;;;5114180;27;20467;-48
2022/04/23 11:02:14;;;;;;;6.70;5.23;;;17.90;99.90;;;;;;5123107;27;20949;-45
2022/04/23 11:12:14;;;;;;;5.60;4.93;;;17.90;99.90;;;;;;5116821;27;21034;-45
2022/04/23 11:13:23;;;;;;;5.80;5.30;;;18.10;99.90;;;;;;5111247;28;20521;-45
2022/04/23 11:16:08;;;;;;;6.93;6.13;;;18.00;99.90;;;;;;5114978;27;20462;-45
2022/04/23 11:18:37;;;;;;;6.83;5.43;;;18.10;99.90;;;;;;5111119;28;20434;-44
2022/04/23 11:21:15;;;;;;;6.33;5.73;;;18.10;99.90;;;;;;5111060;28;20442;-45
2022/04/23 11:23:45;;;;;;;6.23;5.60;;;18.20;99.90;;;;;;5110380;28;20533;-46
2022/04/23 11:26:15;;;;;;;6.60;6.00;;;18.40;99.90;;;;;;5109586;28;20470;-49
2022/04/23 11:28:42;;;;;;;23.80;7.60;;;18.50;99.90;;;;;;5097864;28;20454;-45
2022/04/23 11:31:14;;;;;;;5.90;5.40;;;18.50;99.90;;;;;;5116811;27;20469;-46
2022/04/23 11:33:56;;;;;;;7.60;6.70;;;18.40;99.90;;;;;;5128496;27;20445;-45
2022/04/23 11:36:27;;;;;;;7.17;6.57;;;18.20;99.90;;;;;;5110736;28;20458;-45
2022/04/23 11:38:54;;;;;;;6.80;6.10;;;18.20;99.90;;;;;;5111148;28;20525;-47
2022/04/23 11:41:32;;;;;;;6.40;5.60;;;18.00;99.90;;;;;;5112298;28;20521;-44
2022/04/23 11:44:11;;;;;;;6.67;6.07;;;17.90;99.90;;;;;;5111927;28;20450;-44
2022/04/23 11:46:42;;;;;;;7.50;6.80;;;17.90;99.90;;;;;;5130361;27;20458;-45
2022/04/23 11:49:11;;;;;;;7.37;6.67;;;18.00;99.90;;;;;;5112419;27;20449;-45
2022/04/23 11:51:41;;;;;;;6.33;5.73;;;18.00;99.90;;;;;;5127807;27;20548;-46
2022/04/23 11:54:08;;;;;;;29.47;5.20;;;18.00;99.90;;;;;;5109313;28;20793;-43
2022/04/23 11:56:36;;;;;;;26.63;6.53;;;18.30;96.50;;;;;;5110482;28;20497;-48
2022/04/23 11:59:05;;;;;;;37.17;7.60;;;18.50;94.70;;;;;;5111008;28;20453;-45
2022/04/23 12:01:33;;;;;;;234.33;25.83;;;18.70;92.50;;;;;;5110049;28;20442;-45
2022/04/23 12:04:00;;;;;;;49.03;5.90;;;19.00;91.20;;;;;;5110348;28;20491;-45
2022/04/23 12:06:43;;;;;;;14.77;4.30;;;19.00;90.60;;;;;;5111861;28;20544;-44
2022/04/23 12:09:11;;;;;;;23.20;4.03;;;19.10;90.50;;;;;;5111494;28;20443;-50
2022/04/23 12:11:38;;;;;;;23.13;4.90;;;19.10;90.40;;;;;;5111628;28;20475;-49
2022/04/23 12:14:06;;;;;;;12.17;3.07;;;19.20;87.90;;;;;;5110488;28;20469;-47
2022/04/23 12:16:36;;;;;;;7.07;2.20;;;19.10;89.30;;;;;;5110903;28;20547;-47
2022/04/23 12:19:04;;;;;;;20.13;4.30;;;19.20;90.30;;;;;;5110583;28;20857;-44
2022/04/23 12:21:33;;;;;;;7.60;2.47;;;19.30;89.90;;;;;;5110599;28;20439;-45
2022/04/23 12:24:01;;;;;;;26.03;4.47;;;19.40;89.20;;;;;;5110207;28;20439;-47
2022/04/23 12:26:35;;;;;;;24.57;4.57;;;19.50;86.20;;;;;;5110539;28;20763;-45
2022/04/23 12:43:28;;;;;;;7.13;3.00;;;20.30;83.70;;;;;;5111232;28;20463;-44
2022/04/23 12:46:09;;;;;;;15.73;4.73;;;20.50;82.20;;;;;;5110098;28;20677;-44
2022/04/23 12:48:58;;;;;;;18.73;4.00;;;20.50;79.50;;;;;;5109945;28;20521;-49
2022/04/23 12:51:25;;;;;;;177.07;24.67;;;20.40;76.90;;;;;;5109963;28;20531;-49
2022/04/23 12:53:53;;;;;;;29.10;7.17;;;20.30;79.30;;;;;;5109806;28;20477;-45
2022/04/23 12:56:31;;;;;;;52.90;11.97;;;20.30;79.20;;;;;;5110132;28;20543;-46
2022/04/23 12:58:58;;;;;;;32.77;6.77;;;20.30;79.80;;;;;;5110098;28;20525;-45
2022/04/23 13:01:25;;;;;;;102.67;14.50;;;20.30;73.40;;;;;;5109883;28;20832;-48
2022/04/23 13:03:52;;;;;;;31.23;3.90;;;20.10;71.60;;;;;;5109139;28;20534;-45
2022/04/23 13:09:04;;;;;;;3.43;2.57;;;20.00;77.50;;;;;;5109932;28;20434;-45
2022/04/23 13:11:31;;;;;;;2.70;1.63;;;20.00;73.60;;;;;;5111234;28;21186;-45
2022/04/23 13:14:00;;;;;;;7.80;1.60;;;20.10;77.90;;;;;;5114364;28;20438;-45
2022/04/23 13:16:29;;;;;;;10.03;1.93;;;20.10;73.80;;;;;;5114245;28;20462;-45
2022/04/23 13:18:58;;;;;;;4.03;1.70;;;20.00;71.30;;;;;;5114492;28;21125;-45
2022/04/23 13:21:26;;;;;;;6.50;3.40;;;19.90;73.60;;;;;;5113403;28;20511;-47
2022/04/23 13:23:54;;;;;;;3.50;2.50;;;19.70;72.10;;;;;;5114519;28;20530;-45
2022/04/23 13:26:24;;;;;;;4.60;1.40;;;19.50;74.10;;;;;;5113433;28;21007;-47
2022/04/23 13:28:51;;;;;;;2.13;1.10;;;19.30;73.80;;;;;;5114060;28;20541;-47
2022/04/23 13:31:18;;;;;;;1.93;1.60;;;19.30;74.20;;;;;;5114335;28;20926;-45
2022/04/23 13:33:45;;;;;;;8.60;1.97;;;19.50;71.30;;;;;;5114370;28;20534;-49
2022/04/23 13:36:12;;;;;;;5.50;1.93;;;19.50;72.40;;;;;;5114571;28;20466;-45